Modena, Utah
Current Conditions -  °F | °C
As of 7:53 PM on Monday 22 Dec 2014 (Local Time) from KCDC Reporting Station
Few Clouds Few Clouds  
Wind Chill: 30°   Ceiling: Unl
Heat Index: 36°   Visibility: 10mi
Dew Point: 31°   Wind: 8mph
Humidity: 82%   Direction: 360°N
Pressure: 30.08"   Gusts: NA
Location:  37.8°N, 113.93°W
Report Text: KCDC 230253Z AUTO 36007KT 10SM FEW050 02/M01 A3008 RMK AO2 SLP179 T00221006 53012
Loading
Personal Weather Stations






























Interactive Weather Map New forecast layout! Learn more

10-Day Weather Forecast

Advertisements
Track Severe Weather on mobile